sensor_id;sensor_type;location;lat;lon;timestamp;temperature;humidity
16102;DHT22;56411;52.964;10.540;2023-09-19T00:00:25;15.60;99.90
16102;DHT22;56411;52.964;10.540;2023-09-19T00:02:54;15.60;99.90
16102;DHT22;56411;52.964;10.540;2023-09-19T00:05:24;15.50;99.90
16102;DHT22;56411;52.964;10.540;2023-09-19T00:07:54;15.50;99.90
16102;DHT22;56411;52.964;10.540;2023-09-19T00:10:22;15.50;99.90
16102;DHT22;56411;52.964;10.540;2023-09-19T00:12:50;15.40;99.90
16102;DHT22;56411;52.964;10.540;2023-09-19T00:15:19;15.50;99.90
16102;DHT22;56411;52.964;10.540;2023-09-19T00:17:46;15.50;99.90
16102;DHT22;56411;52.964;10.540;2023-09-19T00:20:15;15.50;99.90
16102;DHT22;56411;52.964;10.540;2023-09-19T00:22:43;15.50;99.90
16102;DHT22;56411;52.964;10.540;2023-09-19T00:25:11;15.40;99.90
16102;DHT22;56411;52.964;10.540;2023-09-19T00:27:41;15.40;99.90
16102;DHT22;56411;52.964;10.540;2023-09-19T00:30:11;15.40;99.90
16102;DHT22;56411;52.964;10.540;2023-09-19T00:32:41;15.40;99.90
16102;DHT22;56411;52.964;10.540;2023-09-19T00:35:10;15.30;99.90
16102;DHT22;56411;52.964;10.540;2023-09-19T00:37:38;15.30;99.90
16102;DHT22;56411;52.964;10.540;2023-09-19T00:40:06;15.30;99.90
16102;DHT22;56411;52.964;10.540;2023-09-19T00:42:37;15.30;99.90
16102;DHT22;56411;52.964;10.540;2023-09-19T00:45:06;15.30;99.90
16102;DHT22;56411;52.964;10.540;2023-09-19T00:47:36;15.30;99.90
16102;DHT22;56411;52.964;10.540;2023-09-19T00:50:05;15.30;99.90
16102;DHT22;56411;52.964;10.540;2023-09-19T00:52:33;15.30;99.90
16102;DHT22;56411;52.964;10.540;2023-09-19T00:55:05;15.30;99.90
16102;DHT22;56411;52.964;10.540;2023-09-19T00:57:32;15.20;99.90
16102;DHT22;56411;52.964;10.540;2023-09-19T01:00:00;15.20;99.90
16102;DHT22;56411;52.964;10.540;2023-09-19T01:02:31;15.20;99.90
16102;DHT22;56411;52.964;10.540;2023-09-19T01:04:58;15.20;99.90
16102;DHT22;56411;52.964;10.540;2023-09-19T01:07:26;15.20;99.90
16102;DHT22;56411;52.964;10.540;2023-09-19T01:09:55;15.10;99.90
16102;DHT22;56411;52.964;10.540;2023-09-19T01:12:30;15.20;99.90
16102;DHT22;56411;52.964;10.540;2023-09-19T01:15:03;15.10;99.90
16102;DHT22;56411;52.964;10.540;2023-09-19T01:17:41;15.10;99.90
16102;DHT22;56411;52.964;10.540;2023-09-19T01:20:20;15.10;99.90
16102;DHT22;56411;52.964;10.540;2023-09-19T01:23:03;15.10;99.90
16102;DHT22;56411;52.964;10.540;2023-09-19T01:26:07;15.10;99.90
16102;DHT22;56411;52.964;10.540;2023-09-19T01:29:13;15.10;99.90
16102;DHT22;56411;52.964;10.540;2023-09-19T01:32:04;15.10;99.90
16102;DHT22;56411;52.964;10.540;2023-09-19T01:34:44;15.10;99.90
16102;DHT22;56411;52.964;10.540;2023-09-19T01:37:12;15.00;99.90
16102;DHT22;56411;52.964;10.540;2023-09-19T01:39:40;15.00;99.90
16102;DHT22;56411;52.964;10.540;2023-09-19T01:42:14;15.10;99.90
16102;DHT22;56411;52.964;10.540;2023-09-19T01:44:57;15.10;99.90
16102;DHT22;56411;52.964;10.540;2023-09-19T01:47:32;15.00;99.90
16102;DHT22;56411;52.964;10.540;2023-09-19T01:50:13;15.00;99.90
16102;DHT22;56411;52.964;10.540;2023-09-19T01:52:48;15.10;99.90
16102;DHT22;56411;52.964;10.540;2023-09-19T01:55:17;15.20;99.90
16102;DHT22;56411;52.964;10.540;2023-09-19T01:57:51;15.20;99.90
16102;DHT22;56411;52.964;10.540;2023-09-19T02:00:22;15.20;99.90
16102;DHT22;56411;52.964;10.540;2023-09-19T02:02:51;15.20;99.90
16102;DHT22;56411;52.964;10.540;2023-09-19T02:05:26;15.20;99.90
16102;DHT22;56411;52.964;10.540;2023-09-19T02:07:53;15.20;99.90
16102;DHT22;56411;52.964;10.540;2023-09-19T02:10:21;15.30;99.90
16102;DHT22;56411;52.964;10.540;2023-09-19T02:12:49;15.30;99.90
16102;DHT22;56411;52.964;10.540;2023-09-19T02:15:16;15.30;99.90
16102;DHT22;56411;52.964;10.540;2023-09-19T02:17:43;15.30;99.90
16102;DHT22;56411;52.964;10.540;2023-09-19T02:20:13;15.40;99.90
16102;DHT22;56411;52.964;10.540;2023-09-19T02:22:42;15.40;99.90
16102;DHT22;56411;52.964;10.540;2023-09-19T02:25:09;15.50;99.90
16102;DHT22;56411;52.964;10.540;2023-09-19T02:27:39;15.50;99.90
16102;DHT22;56411;52.964;10.540;2023-09-19T02:30:07;15.50;99.90
16102;DHT22;56411;52.964;10.540;2023-09-19T02:32:34;15.50;99.90
16102;DHT22;56411;52.964;10.540;2023-09-19T02:35:06;15.60;99.90
16102;DHT22;56411;52.964;10.540;2023-09-19T02:37:34;15.60;99.90
16102;DHT22;56411;52.964;10.540;2023-09-19T02:40:02;15.70;99.90
16102;DHT22;56411;52.964;10.540;2023-09-19T02:42:45;15.70;99.90
16102;DHT22;56411;52.964;10.540;2023-09-19T02:45:15;15.60;99.90
16102;DHT22;56411;52.964;10.540;2023-09-19T02:47:43;15.60;99.90
16102;DHT22;56411;52.964;10.540;2023-09-19T02:50:14;15.60;99.90
16102;DHT22;56411;52.964;10.540;2023-09-19T02:52:45;15.70;99.90
16102;DHT22;56411;52.964;10.540;2023-09-19T02:55:15;15.70;99.90
16102;DHT22;56411;52.964;10.540;2023-09-19T02:57:46;15.70;99.90
16102;DHT22;56411;52.964;10.540;2023-09-19T03:00:14;15.70;99.90
16102;DHT22;56411;52.964;10.540;2023-09-19T03:02:44;15.60;99.90
16102;DHT22;56411;52.964;10.540;2023-09-19T03:05:12;15.60;99.90
16102;DHT22;56411;52.964;10.540;2023-09-19T03:07:39;15.60;99.90
16102;DHT22;56411;52.964;10.540;2023-09-19T03:10:13;15.60;99.90
16102;DHT22;56411;52.964;10.540;2023-09-19T03:12:41;15.60;99.90
16102;DHT22;56411;52.964;10.540;2023-09-19T03:15:09;15.60;99.90
16102;DHT22;56411;52.964;10.540;2023-09-19T03:17:37;15.70;99.90
16102;DHT22;56411;52.964;10.540;2023-09-19T03:20:04;15.60;99.90
16102;DHT22;56411;52.964;10.540;2023-09-19T03:22:34;15.70;99.90
16102;DHT22;56411;52.964;10.540;2023-09-19T03:25:01;15.70;99.90
16102;DHT22;56411;52.964;10.540;2023-09-19T03:27:37;15.80;99.90
16102;DHT22;56411;52.964;10.540;2023-09-19T03:30:06;15.80;99.90
16102;DHT22;56411;52.964;10.540;2023-09-19T03:32:34;15.80;99.90
16102;DHT22;56411;52.964;10.540;2023-09-19T03:35:02;15.80;99.90
16102;DHT22;56411;52.964;10.540;2023-09-19T03:37:31;15.80;99.90
16102;DHT22;56411;52.964;10.540;2023-09-19T03:39:58;15.80;99.90
16102;DHT22;56411;52.964;10.540;2023-09-19T03:42:30;15.80;99.90
16102;DHT22;56411;52.964;10.540;2023-09-19T03:44:58;15.70;99.90
16102;DHT22;56411;52.964;10.540;2023-09-19T03:47:29;15.70;99.90
16102;DHT22;56411;52.964;10.540;2023-09-19T03:49:56;15.60;99.90
16102;DHT22;56411;52.964;10.540;2023-09-19T03:52:24;15.60;99.90
16102;DHT22;56411;52.964;10.540;2023-09-19T03:54:51;15.50;99.90
16102;DHT22;56411;52.964;10.540;2023-09-19T03:57:18;15.50;99.90
16102;DHT22;56411;52.964;10.540;2023-09-19T03:59:46;15.40;99.90
16102;DHT22;56411;52.964;10.540;2023-09-19T04:02:15;15.40;99.90
16102;DHT22;56411;52.964;10.540;2023-09-19T04:04:47;15.30;99.90
16102;DHT22;56411;52.964;10.540;2023-09-19T04:07:16;15.30;99.90
16102;DHT22;56411;52.964;10.540;2023-09-19T04:09:44;15.20;99.90
16102;DHT22;56411;52.964;10.540;2023-09-19T04:12:11;15.30;99.90
16102;DHT22;56411;52.964;10.540;2023-09-19T04:14:38;15.20;99.90
16102;DHT22;56411;52.964;10.540;2023-09-19T04:17:05;15.20;99.90
16102;DHT22;56411;52.964;10.540;2023-09-19T04:19:34;15.20;99.90
16102;DHT22;56411;52.964;10.540;2023-09-19T04:22:01;15.20;99.90
16102;DHT22;56411;52.964;10.540;2023-09-19T04:24:29;15.20;99.90
16102;DHT22;56411;52.964;10.540;2023-09-19T04:26:56;15.20;99.90
16102;DHT22;56411;52.964;10.540;2023-09-19T04:29:25;15.20;99.90
16102;DHT22;56411;52.964;10.540;2023-09-19T04:31:55;15.20;99.90
16102;DHT22;56411;52.964;10.540;2023-09-19T04:34:23;15.30;99.90
16102;DHT22;56411;52.964;10.540;2023-09-19T04:36:55;15.20;99.90
16102;DHT22;56411;52.964;10.540;2023-09-19T04:39:26;15.20;99.90
16102;DHT22;56411;52.964;10.540;2023-09-19T04:41:53;15.20;99.90
16102;DHT22;56411;52.964;10.540;2023-09-19T04:44:20;15.20;99.90
16102;DHT22;56411;52.964;10.540;2023-09-19T04:46:47;15.20;99.90
16102;DHT22;56411;52.964;10.540;2023-09-19T04:49:14;15.10;99.90
16102;DHT22;56411;52.964;10.540;2023-09-19T04:51:41;15.10;99.90
16102;DHT22;56411;52.964;10.540;2023-09-19T04:54:10;15.10;99.90
16102;DHT22;56411;52.964;10.540;2023-09-19T04:56:37;15.10;99.90
16102;DHT22;56411;52.964;10.540;2023-09-19T04:59:06;15.10;99.90
16102;DHT22;56411;52.964;10.540;2023-09-19T05:01:33;15.10;99.90
16102;DHT22;56411;52.964;10.540;2023-09-19T05:04:00;15.00;99.90
16102;DHT22;56411;52.964;10.540;2023-09-19T05:06:27;15.00;99.90
16102;DHT22;56411;52.964;10.540;2023-09-19T05:08:54;15.00;99.90
16102;DHT22;56411;52.964;10.540;2023-09-19T05:11:23;15.00;99.90
16102;DHT22;56411;52.964;10.540;2023-09-19T05:13:50;14.90;99.90
16102;DHT22;56411;52.964;10.540;2023-09-19T05:16:18;14.90;99.90
16102;DHT22;56411;52.964;10.540;2023-09-19T05:18:45;14.90;99.90
16102;DHT22;56411;52.964;10.540;2023-09-19T05:21:12;14.90;99.90
16102;DHT22;56411;52.964;10.540;2023-09-19T05:23:39;14.80;99.90
16102;DHT22;56411;52.964;10.540;2023-09-19T05:26:06;14.80;99.90
16102;DHT22;56411;52.964;10.540;2023-09-19T05:28:35;14.80;99.90
16102;DHT22;56411;52.964;10.540;2023-09-19T05:31:06;14.80;99.90
16102;DHT22;56411;52.964;10.540;2023-09-19T05:33:33;14.70;99.90
16102;DHT22;56411;52.964;10.540;2023-09-19T05:36:00;14.70;99.90
16102;DHT22;56411;52.964;10.540;2023-09-19T05:38:27;14.70;99.90
16102;DHT22;56411;52.964;10.540;2023-09-19T05:40:54;14.70;99.90
16102;DHT22;56411;52.964;10.540;2023-09-19T05:43:21;14.60;99.90
16102;DHT22;56411;52.964;10.540;2023-09-19T05:45:49;14.60;99.90
16102;DHT22;56411;52.964;10.540;2023-09-19T05:48:17;14.60;99.90
16102;DHT22;56411;52.964;10.540;2023-09-19T05:50:46;14.60;99.90
16102;DHT22;56411;52.964;10.540;2023-09-19T05:53:14;14.60;99.90
16102;DHT22;56411;52.964;10.540;2023-09-19T05:55:41;14.50;99.90
16102;DHT22;56411;52.964;10.540;2023-09-19T05:58:09;14.50;99.90
16102;DHT22;56411;52.964;10.540;2023-09-19T06:00:39;14.50;99.90
16102;DHT22;56411;52.964;10.540;2023-09-19T06:03:08;14.50;99.90
16102;DHT22;56411;52.964;10.540;2023-09-19T06:05:37;14.60;99.90
16102;DHT22;56411;52.964;10.540;2023-09-19T06:08:07;14.60;99.90
16102;DHT22;56411;52.964;10.540;2023-09-19T06:10:35;14.60;99.90
16102;DHT22;56411;52.964;10.540;2023-09-19T06:13:02;14.60;99.90
16102;DHT22;56411;52.964;10.540;2023-09-19T06:15:30;14.60;99.90
16102;DHT22;56411;52.964;10.540;2023-09-19T06:17:59;14.60;99.90
16102;DHT22;56411;52.964;10.540;2023-09-19T06:20:29;14.70;99.90
16102;DHT22;56411;52.964;10.540;2023-09-19T06:22:57;14.70;99.90
16102;DHT22;56411;52.964;10.540;2023-09-19T06:25:24;14.70;99.90
16102;DHT22;56411;52.964;10.540;2023-09-19T06:27:52;14.70;99.90
16102;DHT22;56411;52.964;10.540;2023-09-19T06:30:21;14.70;99.90
16102;DHT22;56411;52.964;10.540;2023-09-19T06:32:49;14.70;99.90
16102;DHT22;56411;52.964;10.540;2023-09-19T06:35:17;14.80;99.90
16102;DHT22;56411;52.964;10.540;2023-09-19T06:37:45;14.80;99.90
16102;DHT22;56411;52.964;10.540;2023-09-19T06:40:14;14.90;99.90
16102;DHT22;56411;52.964;10.540;2023-09-19T06:42:41;14.90;99.90
16102;DHT22;56411;52.964;10.540;2023-09-19T06:45:10;15.00;99.90
16102;DHT22;56411;52.964;10.540;2023-09-19T06:47:39;15.00;99.90
16102;DHT22;56411;52.964;10.540;2023-09-19T06:50:06;15.10;99.90
16102;DHT22;56411;52.964;10.540;2023-09-19T06:52:39;15.20;99.90
16102;DHT22;56411;52.964;10.540;2023-09-19T06:55:08;15.20;99.90
16102;DHT22;56411;52.964;10.540;2023-09-19T06:57:35;15.20;99.90
16102;DHT22;56411;52.964;10.540;2023-09-19T07:00:03;15.30;99.90
16102;DHT22;56411;52.964;10.540;2023-09-19T07:02:34;15.30;99.90
16102;DHT22;56411;52.964;10.540;2023-09-19T07:05:01;15.40;99.90
16102;DHT22;56411;52.964;10.540;2023-09-19T07:07:29;15.40;99.90
16102;DHT22;56411;52.964;10.540;2023-09-19T07:09:55;15.50;99.90
16102;DHT22;56411;52.964;10.540;2023-09-19T07:12:24;15.50;99.90
16102;DHT22;56411;52.964;10.540;2023-09-19T07:14:51;15.60;99.90
16102;DHT22;56411;52.964;10.540;2023-09-19T07:17:18;15.70;99.90
16102;DHT22;56411;52.964;10.540;2023-09-19T07:19:47;15.80;99.90
16102;DHT22;56411;52.964;10.540;2023-09-19T07:22:14;16.00;99.90
16102;DHT22;56411;52.964;10.540;2023-09-19T07:24:41;16.10;99.90
16102;DHT22;56411;52.964;10.540;2023-09-19T07:27:08;16.10;99.90
16102;DHT22;56411;52.964;10.540;2023-09-19T07:29:36;16.20;99.90
16102;DHT22;56411;52.964;10.540;2023-09-19T07:32:05;16.10;99.90
16102;DHT22;56411;52.964;10.540;2023-09-19T07:34:34;16.10;99.90
16102;DHT22;56411;52.964;10.540;2023-09-19T07:37:01;16.10;99.90
16102;DHT22;56411;52.964;10.540;2023-09-19T07:39:29;16.10;99.90
16102;DHT22;56411;52.964;10.540;2023-09-19T07:41:56;16.00;99.90
16102;DHT22;56411;52.964;10.540;2023-09-19T07:44:26;16.00;99.90
16102;DHT22;56411;52.964;10.540;2023-09-19T07:46:55;16.00;99.90
16102;DHT22;56411;52.964;10.540;2023-09-19T07:49:27;16.00;99.90
16102;DHT22;56411;52.964;10.540;2023-09-19T07:51:54;15.90;99.90
16102;DHT22;56411;52.964;10.540;2023-09-19T07:54:22;16.00;99.90
16102;DHT22;56411;52.964;10.540;2023-09-19T07:56:49;16.00;99.90
16102;DHT22;56411;52.964;10.540;2023-09-19T07:59:16;16.20;99.90
16102;DHT22;56411;52.964;10.540;2023-09-19T08:01:46;16.30;99.90
16102;DHT22;56411;52.964;10.540;2023-09-19T08:04:15;16.50;99.90
16102;DHT22;56411;52.964;10.540;2023-09-19T08:06:43;16.70;99.90
16102;DHT22;56411;52.964;10.540;2023-09-19T08:09:10;16.70;99.90
16102;DHT22;56411;52.964;10.540;2023-09-19T08:11:39;16.60;99.90
16102;DHT22;56411;52.964;10.540;2023-09-19T08:14:06;16.50;99.90
16102;DHT22;56411;52.964;10.540;2023-09-19T08:16:34;16.50;99.90
16102;DHT22;56411;52.964;10.540;2023-09-19T08:19:02;16.50;99.90
16102;DHT22;56411;52.964;10.540;2023-09-19T08:21:31;16.50;99.90
16102;DHT22;56411;52.964;10.540;2023-09-19T08:23:58;16.50;99.90
16102;DHT22;56411;52.964;10.540;2023-09-19T08:26:25;16.60;99.90
16102;DHT22;56411;52.964;10.540;2023-09-19T08:28:52;16.60;99.90
16102;DHT22;56411;52.964;10.540;2023-09-19T08:31:21;16.70;99.90
16102;DHT22;56411;52.964;10.540;2023-09-19T08:33:49;16.80;99.90
16102;DHT22;56411;52.964;10.540;2023-09-19T08:36:19;16.90;99.90
16102;DHT22;56411;52.964;10.540;2023-09-19T08:38:47;16.90;99.90
16102;DHT22;56411;52.964;10.540;2023-09-19T08:41:17;17.00;99.90
16102;DHT22;56411;52.964;10.540;2023-09-19T08:43:45;17.10;99.90
16102;DHT22;56411;52.964;10.540;2023-09-19T08:46:15;17.10;99.90
16102;DHT22;56411;52.964;10.540;2023-09-19T08:48:45;17.10;99.90
16102;DHT22;56411;52.964;10.540;2023-09-19T08:51:18;17.10;99.90
16102;DHT22;56411;52.964;10.540;2023-09-19T08:53:51;17.10;99.90
16102;DHT22;56411;52.964;10.540;2023-09-19T08:56:20;17.00;99.90
16102;DHT22;56411;52.964;10.540;2023-09-19T08:58:53;16.90;99.90
16102;DHT22;56411;52.964;10.540;2023-09-19T09:01:21;16.90;99.90
16102;DHT22;56411;52.964;10.540;2023-09-19T09:03:51;17.00;99.90
16102;DHT22;56411;52.964;10.540;2023-09-19T09:06:19;17.10;99.90
16102;DHT22;56411;52.964;10.540;2023-09-19T09:08:48;17.20;99.90
16102;DHT22;56411;52.964;10.540;2023-09-19T09:11:17;17.40;99.90
16102;DHT22;56411;52.964;10.540;2023-09-19T09:13:44;17.50;99.90
16102;DHT22;56411;52.964;10.540;2023-09-19T09:16:11;17.60;99.90
16102;DHT22;56411;52.964;10.540;2023-09-19T09:18:39;17.30;99.90
16102;DHT22;56411;52.964;10.540;2023-09-19T09:21:07;17.40;99.90
16102;DHT22;56411;52.964;10.540;2023-09-19T09:23:34;17.50;99.90
16102;DHT22;56411;52.964;10.540;2023-09-19T09:26:02;17.50;99.90
16102;DHT22;56411;52.964;10.540;2023-09-19T09:28:33;17.50;99.90
16102;DHT22;56411;52.964;10.540;2023-09-19T09:31:01;17.40;99.90
16102;DHT22;56411;52.964;10.540;2023-09-19T09:33:34;17.40;99.90
16102;DHT22;56411;52.964;10.540;2023-09-19T09:36:02;17.30;99.90
16102;DHT22;56411;52.964;10.540;2023-09-19T09:38:43;17.40;99.90
16102;DHT22;56411;52.964;10.540;2023-09-19T09:41:13;17.60;99.90
16102;DHT22;56411;52.964;10.540;2023-09-19T09:43:53;17.60;99.90
16102;DHT22;56411;52.964;10.540;2023-09-19T09:46:21;17.70;99.90
16102;DHT22;56411;52.964;10.540;2023-09-19T09:49:06;17.80;99.90
16102;DHT22;56411;52.964;10.540;2023-09-19T09:51:45;18.00;99.90
16102;DHT22;56411;52.964;10.540;2023-09-19T09:54:27;18.00;99.90
16102;DHT22;56411;52.964;10.540;2023-09-19T09:57:02;18.10;99.90
16102;DHT22;56411;52.964;10.540;2023-09-19T09:59:46;18.10;99.90
16102;DHT22;56411;52.964;10.540;2023-09-19T10:02:13;17.80;99.90
16102;DHT22;56411;52.964;10.540;2023-09-19T10:04:44;17.80;99.90
16102;DHT22;56411;52.964;10.540;2023-09-19T10:07:28;17.80;99.90
16102;DHT22;56411;52.964;10.540;2023-09-19T10:09:59;17.70;99.90
16102;DHT22;56411;52.964;10.540;2023-09-19T10:12:40;17.60;99.90
16102;DHT22;56411;52.964;10.540;2023-09-19T10:15:11;17.60;99.90
16102;DHT22;56411;52.964;10.540;2023-09-19T10:17:43;17.80;99.90
16102;DHT22;56411;52.964;10.540;2023-09-19T10:20:13;17.70;99.90
16102;DHT22;56411;52.964;10.540;2023-09-19T10:23:07;17.70;99.90
16102;DHT22;56411;52.964;10.540;2023-09-19T10:25:39;17.80;99.90
16102;DHT22;56411;52.964;10.540;2023-09-19T10:28:09;17.80;99.90
16102;DHT22;56411;52.964;10.540;2023-09-19T10:30:38;17.80;99.90
16102;DHT22;56411;52.964;10.540;2023-09-19T10:33:11;17.70;99.90
16102;DHT22;56411;52.964;10.540;2023-09-19T10:35:40;17.70;99.90
16102;DHT22;56411;52.964;10.540;2023-09-19T10:38:10;17.80;99.90
16102;DHT22;56411;52.964;10.540;2023-09-19T10:40:38;18.00;99.90
16102;DHT22;56411;52.964;10.540;2023-09-19T10:43:13;18.10;99.90
16102;DHT22;56411;52.964;10.540;2023-09-19T10:45:44;18.10;99.90
16102;DHT22;56411;52.964;10.540;2023-09-19T10:48:12;18.30;99.90
16102;DHT22;56411;52.964;10.540;2023-09-19T10:50:45;18.50;99.90
16102;DHT22;56411;52.964;10.540;2023-09-19T10:53:14;18.60;99.90
16102;DHT22;56411;52.964;10.540;2023-09-19T10:55:50;18.70;99.90
16102;DHT22;56411;52.964;10.540;2023-09-19T10:58:32;18.70;99.90
16102;DHT22;56411;52.964;10.540;2023-09-19T11:01:04;18.60;99.90
16102;DHT22;56411;52.964;10.540;2023-09-19T11:03:37;18.80;99.90
16102;DHT22;56411;52.964;10.540;2023-09-19T11:06:11;18.80;99.90
16102;DHT22;56411;52.964;10.540;2023-09-19T11:08:58;18.70;99.90
16102;DHT22;56411;52.964;10.540;2023-09-19T11:11:45;18.60;99.90
16102;DHT22;56411;52.964;10.540;2023-09-19T11:14:47;18.70;99.90
16102;DHT22;56411;52.964;10.540;2023-09-19T11:17:41;18.70;99.90
16102;DHT22;56411;52.964;10.540;2023-09-19T11:20:24;18.60;99.90
16102;DHT22;56411;52.964;10.540;2023-09-19T11:23:23;19.00;99.90
16102;DHT22;56411;52.964;10.540;2023-09-19T11:25:51;19.20;99.90
16102;DHT22;56411;52.964;10.540;2023-09-19T11:28:33;19.00;99.90
16102;DHT22;56411;52.964;10.540;2023-09-19T11:40:10;18.60;99.90
16102;DHT22;56411;52.964;10.540;2023-09-19T11:42:42;18.60;99.90
16102;DHT22;56411;52.964;10.540;2023-09-19T11:48:24;19.00;99.90
16102;DHT22;56411;52.964;10.540;2023-09-19T11:50:53;19.50;99.90
16102;DHT22;56411;52.964;10.540;2023-09-19T11:53:21;19.60;99.90
16102;DHT22;56411;52.964;10.540;2023-09-19T11:55:52;19.00;99.90
16102;DHT22;56411;52.964;10.540;2023-09-19T11:58:22;18.40;99.90
16102;DHT22;56411;52.964;10.540;2023-09-19T12:00:54;18.60;99.90
16102;DHT22;56411;52.964;10.540;2023-09-19T12:03:29;18.80;99.90
16102;DHT22;56411;52.964;10.540;2023-09-19T12:05:57;18.80;99.90
16102;DHT22;56411;52.964;10.540;2023-09-19T12:08:26;18.70;99.90
16102;DHT22;56411;52.964;10.540;2023-09-19T12:10:53;18.70;99.90
16102;DHT22;56411;52.964;10.540;2023-09-19T12:13:21;18.90;99.90
16102;DHT22;56411;52.964;10.540;2023-09-19T12:15:48;19.20;99.90
16102;DHT22;56411;52.964;10.540;2023-09-19T12:18:28;19.50;99.90
16102;DHT22;56411;52.964;10.540;2023-09-19T12:20:55;19.80;99.90
16102;DHT22;56411;52.964;10.540;2023-09-19T12:23:23;19.70;99.90
16102;DHT22;56411;52.964;10.540;2023-09-19T12:25:53;20.00;99.90
16102;DHT22;56411;52.964;10.540;2023-09-19T12:28:24;20.40;99.90
16102;DHT22;56411;52.964;10.540;2023-09-19T12:30:54;20.20;99.90
16102;DHT22;56411;52.964;10.540;2023-09-19T12:33:22;19.80;99.90
16102;DHT22;56411;52.964;10.540;2023-09-19T12:35:51;19.60;99.90
16102;DHT22;56411;52.964;10.540;2023-09-19T12:38:25;19.40;99.90
16102;DHT22;56411;52.964;10.540;2023-09-19T12:40:55;19.40;99.90
16102;DHT22;56411;52.964;10.540;2023-09-19T12:43:24;19.70;99.90
16102;DHT22;56411;52.964;10.540;2023-09-19T12:45:52;19.60;99.90
16102;DHT22;56411;52.964;10.540;2023-09-19T12:48:21;19.50;99.90
16102;DHT22;56411;52.964;10.540;2023-09-19T12:51:04;19.50;99.90
16102;DHT22;56411;52.964;10.540;2023-09-19T12:53:37;19.30;99.90
16102;DHT22;56411;52.964;10.540;2023-09-19T12:56:07;19.40;99.90
16102;DHT22;56411;52.964;10.540;2023-09-19T12:58:47;19.10;99.90
16102;DHT22;56411;52.964;10.540;2023-09-19T13:01:14;18.90;99.90
16102;DHT22;56411;52.964;10.540;2023-09-19T13:03:42;19.00;99.90
16102;DHT22;56411;52.964;10.540;2023-09-19T13:06:09;19.30;99.90
16102;DHT22;56411;52.964;10.540;2023-09-19T13:08:38;19.70;99.90
16102;DHT22;56411;52.964;10.540;2023-09-19T13:11:10;19.30;99.90
16102;DHT22;56411;52.964;10.540;2023-09-19T13:13:40;19.70;99.90
16102;DHT22;56411;52.964;10.540;2023-09-19T13:16:08;19.80;99.90
16102;DHT22;56411;52.964;10.540;2023-09-19T13:18:48;20.10;99.90
16102;DHT22;56411;52.964;10.540;2023-09-19T13:21:28;20.20;99.90
16102;DHT22;56411;52.964;10.540;2023-09-19T13:23:56;20.20;99.90
16102;DHT22;56411;52.964;10.540;2023-09-19T13:26:26;19.70;99.90
16102;DHT22;56411;52.964;10.540;2023-09-19T13:28:53;19.70;99.90
16102;DHT22;56411;52.964;10.540;2023-09-19T13:31:20;20.10;99.90
16102;DHT22;56411;52.964;10.540;2023-09-19T13:33:49;19.80;99.90
16102;DHT22;56411;52.964;10.540;2023-09-19T13:36:17;19.80;99.90
16102;DHT22;56411;52.964;10.540;2023-09-19T13:38:44;19.80;99.90
16102;DHT22;56411;52.964;10.540;2023-09-19T13:41:14;19.90;99.90
16102;DHT22;56411;52.964;10.540;2023-09-19T13:43:43;19.90;99.90
16102;DHT22;56411;52.964;10.540;2023-09-19T13:46:13;19.50;99.90
16102;DHT22;56411;52.964;10.540;2023-09-19T13:48:42;19.40;99.90
16102;DHT22;56411;52.964;10.540;2023-09-19T13:51:09;19.50;99.90
16102;DHT22;56411;52.964;10.540;2023-09-19T13:53:36;19.90;99.90
16102;DHT22;56411;52.964;10.540;2023-09-19T13:56:03;19.80;99.90
16102;DHT22;56411;52.964;10.540;2023-09-19T13:58:30;19.70;99.90
16102;DHT22;56411;52.964;10.540;2023-09-19T14:01:00;20.10;99.90
16102;DHT22;56411;52.964;10.540;2023-09-19T14:03:28;20.20;99.90
16102;DHT22;56411;52.964;10.540;2023-09-19T14:05:55;20.10;99.90
16102;DHT22;56411;52.964;10.540;2023-09-19T14:08:23;19.90;99.90
16102;DHT22;56411;52.964;10.540;2023-09-19T14:10:50;19.90;99.90
16102;DHT22;56411;52.964;10.540;2023-09-19T14:13:17;20.20;99.90
16102;DHT22;56411;52.964;10.540;2023-09-19T14:15:45;20.00;99.90
16102;DHT22;56411;52.964;10.540;2023-09-19T14:18:16;19.70;99.90
16102;DHT22;56411;52.964;10.540;2023-09-19T14:20:44;19.90;99.90
16102;DHT22;56411;52.964;10.540;2023-09-19T14:23:11;20.30;99.90
16102;DHT22;56411;52.964;10.540;2023-09-19T14:25:38;20.80;99.90
16102;DHT22;56411;52.964;10.540;2023-09-19T14:28:07;21.20;99.90
16102;DHT22;56411;52.964;10.540;2023-09-19T14:30:35;20.40;99.90
16102;DHT22;56411;52.964;10.540;2023-09-19T14:33:03;20.10;99.90
16102;DHT22;56411;52.964;10.540;2023-09-19T14:35:31;20.60;99.90
16102;DHT22;56411;52.964;10.540;2023-09-19T14:37:58;20.90;99.90
16102;DHT22;56411;52.964;10.540;2023-09-19T14:40:25;20.70;99.90
16102;DHT22;56411;52.964;10.540;2023-09-19T14:42:52;21.10;99.90
16102;DHT22;56411;52.964;10.540;2023-09-19T14:45:20;21.60;99.90
16102;DHT22;56411;52.964;10.540;2023-09-19T14:47:47;21.50;99.90
16102;DHT22;56411;52.964;10.540;2023-09-19T14:50:14;21.50;99.90
16102;DHT22;56411;52.964;10.540;2023-09-19T14:52:42;21.20;99.90
16102;DHT22;56411;52.964;10.540;2023-09-19T14:55:09;21.00;99.90
16102;DHT22;56411;52.964;10.540;2023-09-19T14:57:40;21.10;99.90
16102;DHT22;56411;52.964;10.540;2023-09-19T15:00:10;21.00;99.90
16102;DHT22;56411;52.964;10.540;2023-09-19T15:02:38;21.50;99.90
16102;DHT22;56411;52.964;10.540;2023-09-19T15:05:08;21.00;99.90
16102;DHT22;56411;52.964;10.540;2023-09-19T15:07:36;20.50;99.90
16102;DHT22;56411;52.964;10.540;2023-09-19T15:10:06;20.30;99.90
16102;DHT22;56411;52.964;10.540;2023-09-19T15:12:35;20.20;99.90
16102;DHT22;56411;52.964;10.540;2023-09-19T15:15:07;19.70;99.90
16102;DHT22;56411;52.964;10.540;2023-09-19T15:17:35;19.30;99.90
16102;DHT22;56411;52.964;10.540;2023-09-19T15:20:03;19.10;99.90
16102;DHT22;56411;52.964;10.540;2023-09-19T15:22:32;19.40;99.90
16102;DHT22;56411;52.964;10.540;2023-09-19T15:24:59;19.30;99.90
16102;DHT22;56411;52.964;10.540;2023-09-19T15:27:28;19.30;99.90
16102;DHT22;56411;52.964;10.540;2023-09-19T15:29:56;19.40;99.90
16102;DHT22;56411;52.964;10.540;2023-09-19T15:32:24;19.50;99.90
16102;DHT22;56411;52.964;10.540;2023-09-19T15:34:51;19.60;99.90
16102;DHT22;56411;52.964;10.540;2023-09-19T15:37:18;19.80;99.90
16102;DHT22;56411;52.964;10.540;2023-09-19T15:39:45;19.80;99.90
16102;DHT22;56411;52.964;10.540;2023-09-19T15:42:11;19.90;99.90
16102;DHT22;56411;52.964;10.540;2023-09-19T15:44:40;19.70;99.90